Greenwood Village, Colorado
Current Conditions -  °F | °C
As of 4:53 PM on Wednesday 22 Oct 2014 (Local Time) from KAPA Reporting Station
Broken Clouds Broken Clouds  
Wind Chill: 65°   Ceiling: 18000
Heat Index: 65°   Visibility: 10mi
Dew Point: 37°   Wind: 9mph
Humidity: 36%   Direction: 40°NE
Pressure: 30.09"   Gusts: NA
Location:  39.6443°N, 104.983°W
Report Text: KAPA 222253Z 04008KT 10SM SCT100 SCT140 BKN180 18/03 A3009 RMK AO2 SLP150 VIRGA DSNT S-W-N T01830028
Loading
Personal Weather Stations






























Interactive Weather Map
Tropical Storm Tracking
New forecast layout! Learn more

10-Day Weather Forecast

Advertisements
Track Severe Weather on mobile